Time;durP1;ratioP1;P1;durP2;ratioP2;P2;SDS_P1;SDS_P2;PMS_P1;PMS_P2;Temp;Humidity;BMP_temperature;BMP_pressure;BME280_temperature;BME280_humidity;BME280_pressure;Samples;Min_cycle;Max_cycle;Signal;HPM_P1;HPM_P2
2022/04/27 00:00:34;;;;;;;;;;;;;;;13.37;79.27;100738.94;4715994;30;19927;-79
2022/04/27 00:03:19;;;;;;;;;;;;;;;13.42;78.56;100732.47;4721820;30;19927;-78
2022/04/27 00:06:04;;;;;;;;;;;;;;;13.23;79.58;100735.69;4717765;30;19923;-78
2022/04/27 00:08:48;;;;;;;;;;;;;;;12.95;80.43;100732.63;4716973;30;19928;-79
2022/04/27 00:11:32;;;;;;;;;;;;;;;12.94;80.48;100724.75;4706596;30;19923;-79
2022/04/27 00:14:17;;;;;;;;;;;;;;;13.27;79.21;100729.22;4706913;30;19923;-79
2022/04/27 00:17:01;;;;;;;;;;;;;;;13.25;78.49;100723.31;4720686;30;19927;-79
2022/04/27 00:19:46;;;;;;;;;;;;;;;13.09;79.24;100724.19;4723789;30;19923;-79
2022/04/27 00:22:30;;;;;;;;;;;;;;;13.34;78.31;100717.75;4723516;30;19932;-78
2022/04/27 00:25:16;;;;;;;;;;;;;;;13.34;78.50;100715.03;4721041;30;19926;-79
2022/04/27 00:28:00;;;;;;;;;;;;;;;13.20;78.78;100719.97;4714659;30;20389;-78
2022/04/27 00:30:45;;;;;;;;;;;;;;;13.06;79.23;100722.91;4722716;30;20297;-78
2022/04/27 00:33:30;;;;;;;;;;;;;;;13.01;79.91;100719.56;4718759;30;19923;-78
2022/04/27 00:36:15;;;;;;;;;;;;;;;12.90;79.89;100726.56;4714355;30;19923;-78
2022/04/27 00:38:59;;;;;;;;;;;;;;;12.95;80.37;100729.09;4723243;30;19923;-78
2022/04/27 00:41:59;;;;;;;;;;;;;;;12.71;80.86;100732.41;4730673;30;19923;-77
2022/04/27 00:44:44;;;;;;;;;;;;;;;12.56;81.83;100732.97;4720090;30;19923;-78
2022/04/27 00:47:30;;;;;;;;;;;;;;;12.49;81.98;100740.88;4716546;30;19923;-78
2022/04/27 00:50:15;;;;;;;;;;;;;;;12.38;82.31;100735.00;4702307;30;19928;-78
2022/04/27 00:53:00;;;;;;;;;;;;;;;12.42;83.08;100733.19;4751931;24;19934;-78
2022/04/27 00:55:46;;;;;;;;;;;;;;;12.38;82.74;100735.00;4749726;30;20473;-81
2022/04/27 00:58:31;;;;;;;;;;;;;;;12.25;82.91;100739.50;4746661;30;19922;-80
2022/04/27 01:01:16;;;;;;;;;;;;;;;12.03;84.74;100744.41;4765422;30;19922;-78
2022/04/27 01:04:01;;;;;;;;;;;;;;;12.24;84.32;100743.34;4732872;30;20344;-79
2022/04/27 01:06:45;;;;;;;;;;;;;;;12.02;84.40;100751.78;4730445;30;19930;-78
2022/04/27 01:09:30;;;;;;;;;;;;;;;11.93;84.87;100742.81;4731808;30;19927;-79
2022/04/27 01:12:15;;;;;;;;;;;;;;;12.06;84.33;100743.72;4748465;30;19922;-79
2022/04/27 01:15:08;;;;;;;;;;;;;;;12.18;83.24;100743.88;4739280;30;19922;-80
2022/04/27 01:17:57;;;;;;;;;;;;;;;12.07;83.88;100748.06;4735617;30;19922;-79
2022/04/27 01:20:45;;;;;;;;;;;;;;;11.76;86.09;100749.06;4735177;30;20305;-79
2022/04/27 01:23:32;;;;;;;;;;;;;;;11.93;85.43;100743.63;4735152;30;19923;-78
2022/04/27 01:26:19;;;;;;;;;;;;;;;12.03;84.36;100747.13;4737042;30;19923;-79
2022/04/27 01:29:04;;;;;;;;;;;;;;;12.09;83.59;100748.56;4735015;30;19926;-79
2022/04/27 01:31:50;;;;;;;;;;;;;;;12.02;83.78;100753.69;4734889;30;20308;-79
2022/04/27 01:34:34;;;;;;;;;;;;;;;11.95;83.01;100744.06;4735088;30;20388;-81
2022/04/27 01:40:23;;;;;;;;;;;;;;;11.81;84.35;100735.28;4740324;30;19922;-80
2022/04/27 01:43:08;;;;;;;;;;;;;;;11.82;85.16;100745.06;4731415;30;20328;-80
2022/04/27 01:45:53;;;;;;;;;;;;;;;11.76;84.16;100746.34;4733439;30;19922;-80
2022/04/27 01:48:39;;;;;;;;;;;;;;;11.74;82.21;100748.59;4750112;30;19927;-81
2022/04/27 01:54:15;;;;;;;;;;;;;;;11.80;81.11;100744.59;4735000;30;19922;-82
2022/04/27 01:54:30;;;;;;;;;;;;;;;11.65;81.74;100750.50;4739455;30;19927;-82
2022/04/27 01:57:15;;;;;;;;;;;;;;;11.66;82.13;100757.53;4740073;30;19922;-80
2022/04/27 02:00:00;;;;;;;;;;;;;;;11.53;82.81;100764.75;4740076;30;19923;-82
2022/04/27 02:02:46;;;;;;;;;;;;;;;11.53;83.04;100758.50;4736440;30;20396;-82
2022/04/27 02:05:30;;;;;;;;;;;;;;;11.62;82.06;100753.06;4734943;30;19923;-80
2022/04/27 02:08:15;;;;;;;;;;;;;;;11.58;81.24;100753.69;4739636;30;19923;-81
2022/04/27 02:11:00;;;;;;;;;;;;;;;11.59;81.65;100759.94;4739571;30;20308;-81
2022/04/27 02:13:46;;;;;;;;;;;;;;;11.40;81.77;100756.72;4734336;30;19923;-81
2022/04/27 02:16:31;;;;;;;;;;;;;;;11.32;82.75;100754.81;4739765;30;20308;-81
2022/04/27 02:19:16;;;;;;;;;;;;;;;11.17;82.44;100758.00;4734529;30;19922;-79
2022/04/27 02:22:02;;;;;;;;;;;;;;;11.26;83.22;100756.09;4749960;30;19923;-80
2022/04/27 02:24:48;;;;;;;;;;;;;;;11.31;82.95;100764.91;4732796;30;19922;-78
2022/04/27 02:27:33;;;;;;;;;;;;;;;11.30;83.10;100768.75;4734024;30;19922;-78
2022/04/27 02:30:18;;;;;;;;;;;;;;;11.39;81.99;100766.03;4732414;30;20397;-78
2022/04/27 02:33:03;;;;;;;;;;;;;;;11.29;80.05;100771.78;4735253;30;19923;-79
2022/04/27 02:35:47;;;;;;;;;;;;;;;11.22;80.35;100771.47;4734375;30;19923;-78
2022/04/27 02:38:32;;;;;;;;;;;;;;;11.10;80.98;100767.44;4733860;30;19922;-79
2022/04/27 02:41:20;;;;;;;;;;;;;;;11.20;82.22;100773.69;4736075;30;19922;-79
2022/04/27 02:44:05;;;;;;;;;;;;;;;11.03;82.37;100767.09;4733700;30;20301;-79
2022/04/27 02:46:49;;;;;;;;;;;;;;;10.68;88.12;100770.81;4730438;30;19923;-79
2022/04/27 02:52:38;;;;;;;;;;;;;;;11.11;85.60;100768.25;4718571;30;19923;-79
2022/04/27 02:55:29;;;;;;;;;;;;;;;11.05;85.82;100777.66;4725051;30;19923;-78
2022/04/27 02:58:15;;;;;;;;;;;;;;;11.04;85.49;100776.06;4741641;30;20308;-79
2022/04/27 03:00:59;;;;;;;;;;;;;;;11.08;84.77;100777.81;4736950;30;19922;-78
2022/04/27 03:03:43;;;;;;;;;;;;;;;11.09;82.92;100784.88;4737055;30;19923;-78
2022/04/27 03:06:28;;;;;;;;;;;;;;;10.94;82.35;100784.50;4732510;30;19923;-79
2022/04/27 03:09:12;;;;;;;;;;;;;;;10.96;83.32;100788.53;4749921;30;19926;-78
2022/04/27 03:11:57;;;;;;;;;;;;;;;11.02;83.13;100792.69;4741441;30;20401;-78
2022/04/27 03:14:47;;;;;;;;;;;;;;;11.05;81.37;100794.00;4737439;30;19922;-79
2022/04/27 03:17:32;;;;;;;;;;;;;;;10.93;81.53;100789.16;4737571;30;19922;-79
2022/04/27 03:20:17;;;;;;;;;;;;;;;10.83;81.98;100794.88;4737590;30;19923;-79
2022/04/27 03:23:02;;;;;;;;;;;;;;;10.83;82.45;100803.03;4737209;30;19923;-78
2022/04/27 03:25:46;;;;;;;;;;;;;;;10.86;83.30;100807.88;4736734;30;19930;-77
2022/04/27 03:28:33;;;;;;;;;;;;;;;10.78;82.91;100816.78;4740446;30;19923;-80
2022/04/27 03:31:18;;;;;;;;;;;;;;;10.73;82.79;100817.72;4738703;30;19922;-79
2022/04/27 03:34:04;;;;;;;;;;;;;;;10.44;82.29;100817.41;4737491;30;19922;-78
2022/04/27 03:36:52;;;;;;;;;;;;;;;10.46;80.48;100830.72;4737059;30;19922;-79
2022/04/27 03:39:39;;;;;;;;;;;;;;;10.23;81.76;100833.44;4738979;30;19923;-78
2022/04/27 03:42:24;;;;;;;;;;;;;;;10.36;82.17;100839.13;4737124;30;19923;-79
2022/04/27 03:45:19;;;;;;;;;;;;;;;10.24;82.36;100834.25;4737325;30;19922;-80
2022/04/27 03:48:05;;;;;;;;;;;;;;;10.22;82.68;100842.69;4738291;30;19922;-79
2022/04/27 03:50:53;;;;;;;;;;;;;;;10.23;82.31;100847.03;4736917;30;19926;-82
2022/04/27 03:53:38;;;;;;;;;;;;;;;10.07;82.80;100848.47;4737042;30;19922;-80
2022/04/27 03:56:22;;;;;;;;;;;;;;;10.34;81.60;100857.66;4736382;30;19922;-79
2022/04/27 03:59:07;;;;;;;;;;;;;;;10.10;81.81;100849.78;4747975;30;19922;-78
2022/04/27 04:01:52;;;;;;;;;;;;;;;10.19;81.89;100854.19;4740595;30;19922;-80
2022/04/27 04:04:36;;;;;;;;;;;;;;;10.40;80.89;100854.50;4742928;30;19930;-80
2022/04/27 04:07:21;;;;;;;;;;;;;;;10.24;80.33;100856.78;4736377;30;19927;-79
2022/04/27 04:10:12;;;;;;;;;;;;;;;10.36;80.53;100858.97;4740069;30;20417;-80
2022/04/27 04:13:00;;;;;;;;;;;;;;;10.57;79.13;100870.09;4737745;30;19922;-79
2022/04/27 04:16:04;;;;;;;;;;;;;;;10.64;78.10;100870.47;4730503;30;19923;-81
2022/04/27 04:19:11;;;;;;;;;;;;;;;10.55;79.13;100873.16;4727377;30;19922;-79
2022/04/27 04:22:14;;;;;;;;;;;;;;;10.50;79.26;100880.63;4732442;30;20389;-79
2022/04/27 04:28:31;;;;;;;;;;;;;;;10.54;80.19;100881.59;4752852;30;19922;-79
2022/04/27 04:31:17;;;;;;;;;;;;;;;10.54;80.51;100876.97;4740930;30;20304;-79
2022/04/27 04:34:24;;;;;;;;;;;;;;;10.60;79.88;100889.34;4736017;30;19922;-80
2022/04/27 04:37:09;;;;;;;;;;;;;;;10.39;80.46;100890.94;4734473;30;19934;-80
2022/04/27 04:39:53;;;;;;;;;;;;;;;10.57;79.46;100897.28;4750567;30;19922;-78
2022/04/27 04:42:40;;;;;;;;;;;;;;;10.56;77.69;100906.56;4733380;30;19923;-80
2022/04/27 04:45:26;;;;;;;;;;;;;;;10.50;76.90;100913.25;4737782;30;20309;-81
2022/04/27 04:48:33;;;;;;;;;;;;;;;10.48;76.42;100910.03;4738537;30;19922;-79
2022/04/27 04:51:27;;;;;;;;;;;;;;;9.87;78.17;100919.56;4737174;30;19922;-79
2022/04/27 04:54:30;;;;;;;;;;;;;;;9.91;79.61;100926.00;4735831;30;19923;-80
2022/04/27 04:57:26;;;;;;;;;;;;;;;10.07;80.02;100924.53;4734489;30;19922;-79
2022/04/27 05:00:23;;;;;;;;;;;;;;;10.10;80.83;100931.28;4740712;30;19922;-79
2022/04/27 05:03:36;;;;;;;;;;;;;;;9.94;82.57;100932.75;4735726;30;20394;-80
2022/04/27 05:06:39;;;;;;;;;;;;;;;10.15;81.53;100940.13;4735939;30;19922;-79
2022/04/27 05:09:48;;;;;;;;;;;;;;;10.34;80.21;100931.03;4737656;30;20408;-79
2022/04/27 05:12:51;;;;;;;;;;;;;;;10.61;80.34;100937.16;4734446;30;19923;-78
2022/04/27 05:16:06;;;;;;;;;;;;;;;11.07;78.63;100933.28;4733549;30;20280;-80
2022/04/27 05:19:16;;;;;;;;;;;;;;;11.22;78.75;100934.78;4730319;30;20315;-79
2022/04/27 05:22:19;;;;;;;;;;;;;;;11.44;78.20;100942.84;4735572;30;20404;-81
2022/04/27 05:25:13;;;;;;;;;;;;;;;11.66;77.97;100945.50;4737291;30;19926;-80
2022/04/27 05:28:07;;;;;;;;;;;;;;;11.80;77.57;100946.19;4739968;30;19923;-79
2022/04/27 05:34:24;;;;;;;;;;;;;;;12.09;77.08;100956.50;4730610;30;20311;-80
2022/04/27 05:37:13;;;;;;;;;;;;;;;12.22;77.86;100961.00;4719954;30;19923;-80
2022/04/27 05:40:13;;;;;;;;;;;;;;;12.36;77.34;100972.56;4746449;30;21555;-80
2022/04/27 05:43:11;;;;;;;;;;;;;;;12.63;76.78;100965.97;4735790;30;19923;-80
2022/04/27 05:46:27;;;;;;;;;;;;;;;13.05;75.71;100972.50;4732424;30;19923;-79
2022/04/27 05:49:31;;;;;;;;;;;;;;;13.14;74.32;100978.75;4734852;30;20392;-78
2022/04/27 05:52:59;;;;;;;;;;;;;;;13.38;72.51;100971.91;4734104;30;19942;-79
2022/04/27 05:56:23;;;;;;;;;;;;;;;13.75;71.98;100975.78;4731579;30;19922;-78
2022/04/27 05:59:23;;;;;;;;;;;;;;;14.03;69.79;100972.22;4730127;30;19923;-77
2022/04/27 06:02:31;;;;;;;;;;;;;;;14.06;70.11;100976.22;4734240;30;19922;-78
2022/04/27 06:05:15;;;;;;;;;;;;;;;13.85;69.72;100972.66;4747275;30;19926;-78
2022/04/27 06:08:00;;;;;;;;;;;;;;;14.10;69.86;100974.41;4751001;30;19922;-78
2022/04/27 06:10:45;;;;;;;;;;;;;;;14.11;69.77;100973.28;4734341;30;19926;-79
2022/04/27 06:13:30;;;;;;;;;;;;;;;14.36;69.46;100972.34;4734911;30;19923;-79
2022/04/27 06:16:34;;;;;;;;;;;;;;;14.57;67.85;100980.53;4725632;30;19923;-79
2022/04/27 06:19:31;;;;;;;;;;;;;;;14.83;67.27;100983.03;4729781;30;19923;-78
2022/04/27 06:22:22;;;;;;;;;;;;;;;15.15;67.36;100989.59;4725922;30;19922;-78
2022/04/27 06:25:07;;;;;;;;;;;;;;;15.56;65.73;100994.16;4730358;30;19923;-79
2022/04/27 06:28:12;;;;;;;;;;;;;;;16.43;62.46;101000.00;4729286;30;19923;-79
2022/04/27 06:30:57;;;;;;;;;;;;;;;16.66;60.81;101007.38;4722120;30;20717;-79
2022/04/27 06:33:42;;;;;;;;;;;;;;;16.88;60.29;101005.25;4727850;30;19922;-79
2022/04/27 06:36:26;;;;;;;;;;;;;;;17.51;57.89;101017.16;4740688;30;19942;-80
2022/04/27 06:39:15;;;;;;;;;;;;;;;18.55;55.25;101016.47;4734927;30;19922;-79
2022/04/27 06:42:01;;;;;;;;;;;;;;;20.31;50.33;101018.06;4741468;30;19922;-80
2022/04/27 06:45:08;;;;;;;;;;;;;;;21.90;44.88;101030.03;4729416;30;19923;-79
2022/04/27 06:48:12;;;;;;;;;;;;;;;23.77;40.69;101020.91;4731272;30;19923;-78
2022/04/27 06:51:18;;;;;;;;;;;;;;;25.33;36.89;101029.53;4733421;30;19934;-82
2022/04/27 06:54:21;;;;;;;;;;;;;;;22.39;41.99;101034.38;4732180;30;19926;-79
2022/04/27 06:57:34;;;;;;;;;;;;;;;20.42;47.15;101029.22;4755238;24;20306;-72
2022/04/27 07:00:26;;;;;;;;;;;;;;;21.97;44.91;101043.19;4745535;30;19926;-72
2022/04/27 07:03:11;;;;;;;;;;;;;;;20.74;45.73;101040.69;4746787;30;19926;-72
2022/04/27 07:05:55;;;;;;;;;;;;;;;18.45;52.17;101044.56;4743125;30;19930;-72
2022/04/27 07:08:41;;;;;;;;;;;;;;;23.66;40.34;101040.34;4732657;30;19927;-72
2022/04/27 07:11:25;;;;;;;;;;;;;;;25.87;35.35;101049.44;4732067;30;20295;-72
2022/04/27 07:14:11;;;;;;;;;;;;;;;26.17;34.67;101045.97;4733721;30;19918;-67
2022/04/27 07:16:57;;;;;;;;;;;;;;;28.50;30.23;101055.78;4716111;30;19923;-68
2022/04/27 07:19:41;;;;;;;;;;;;;;;31.14;26.28;101063.69;4716203;30;20407;-66
2022/04/27 07:22:27;;;;;;;;;;;;;;;30.94;26.15;101066.66;4728292;30;19922;-67
2022/04/27 07:25:18;;;;;;;;;;;;;;;32.24;24.17;101065.75;4733694;30;20389;-68
2022/04/27 07:28:02;;;;;;;;;;;;;;;33.90;21.87;101081.91;4727069;30;19922;-68
2022/04/27 07:30:46;;;;;;;;;;;;;;;34.08;22.12;101081.16;4733567;30;19926;-68
2022/04/27 07:33:31;;;;;;;;;;;;;;;33.98;21.25;101075.97;4733561;30;20309;-68
2022/04/27 07:36:16;;;;;;;;;;;;;;;33.79;21.75;101081.56;4733354;30;19923;-68
2022/04/27 07:39:01;;;;;;;;;;;;;;;33.93;21.37;101088.66;4733902;30;19930;-68
2022/04/27 07:41:46;;;;;;;;;;;;;;;33.08;22.45;101080.75;4732948;30;19922;-68
2022/04/27 07:44:30;;;;;;;;;;;;;;;34.41;20.76;101089.81;4736209;30;19922;-69
2022/04/27 07:47:15;;;;;;;;;;;;;;;35.31;20.14;101092.97;4718442;30;19923;-67
2022/04/27 07:50:00;;;;;;;;;;;;;;;37.06;17.70;101092.84;4719150;30;19927;-66
2022/04/27 07:52:45;;;;;;;;;;;;;;;39.60;15.10;101101.41;4718752;30;20312;-68
2022/04/27 07:55:29;;;;;;;;;;;;;;;36.85;17.53;101105.38;4718867;30;19923;-65
2022/04/27 07:58:14;;;;;;;;;;;;;;;37.93;15.75;101102.50;4732085;30;20391;-73
2022/04/27 08:01:03;;;;;;;;;;;;;;;38.39;15.58;101104.63;4736274;30;19951;-73
2022/04/27 08:03:47;;;;;;;;;;;;;;;39.97;14.50;101106.31;4736030;30;19922;-71
2022/04/27 08:06:33;;;;;;;;;;;;;;;40.81;13.67;101113.09;4736213;30;19931;-74
2022/04/27 08:09:18;;;;;;;;;;;;;;;38.63;15.34;101110.09;4736448;30;19923;-73
2022/04/27 08:12:02;;;;;;;;;;;;;;;39.81;14.45;101102.06;4736308;30;20311;-73
2022/04/27 08:14:47;;;;;;;;;;;;;;;33.07;21.72;101096.88;4736504;30;19922;-74
2022/04/27 08:17:32;;;;;;;;;;;;;;;28.53;27.15;101080.13;4736326;30;19922;-73
2022/04/27 08:23:22;;;;;;;;;;;;;;;23.31;37.00;101079.13;4736332;30;19923;-74
2022/04/27 08:26:07;;;;;;;;;;;;;;;21.62;40.93;101080.44;4735139;30;19923;-73
2022/04/27 08:28:51;;;;;;;;;;;;;;;21.70;39.38;101081.28;4736257;30;20332;-73
2022/04/27 08:31:37;;;;;;;;;;;;;;;21.45;39.78;101080.25;4735968;30;19926;-72
2022/04/27 08:34:24;;;;;;;;;;;;;;;20.58;41.59;101090.63;4736056;30;19923;-72
2022/04/27 08:37:09;;;;;;;;;;;;;;;20.83;41.36;101089.00;4735967;30;20303;-73
2022/04/27 08:39:54;;;;;;;;;;;;;;;21.89;39.96;101097.66;4735848;30;19922;-73
2022/04/27 08:42:38;;;;;;;;;;;;;;;21.67;39.17;101091.16;4735790;30;19922;-74
2022/04/27 08:45:22;;;;;;;;;;;;;;;22.03;38.62;101100.63;4735701;30;19923;-72
2022/04/27 08:48:07;;;;;;;;;;;;;;;21.13;40.35;101085.44;4735688;30;19922;-73
2022/04/27 08:50:52;;;;;;;;;;;;;;;21.61;38.93;101095.47;4735710;30;19931;-71
2022/04/27 08:53:36;;;;;;;;;;;;;;;21.67;38.63;101102.25;4735579;30;19941;-72
2022/04/27 08:56:23;;;;;;;;;;;;;;;21.69;39.94;101099.06;4735835;30;19923;-73
2022/04/27 08:59:08;;;;;;;;;;;;;;;21.73;37.63;101099.91;4735625;30;19935;-73
2022/04/27 09:01:54;;;;;;;;;;;;;;;21.93;37.92;101101.28;4735589;30;19926;-74
2022/04/27 09:04:38;;;;;;;;;;;;;;;22.29;37.62;101104.38;4735380;30;19923;-74
2022/04/27 09:07:22;;;;;;;;;;;;;;;22.89;36.08;101108.31;4740300;30;19923;-73
2022/04/27 09:10:08;;;;;;;;;;;;;;;22.84;35.27;101100.38;4718045;30;19927;-73
2022/04/27 09:12:55;;;;;;;;;;;;;;;22.80;36.06;101104.31;4750902;30;19926;-74
2022/04/27 09:15:40;;;;;;;;;;;;;;;22.54;35.51;101114.44;4735431;30;19922;-74
2022/04/27 09:21:28;;;;;;;;;;;;;;;23.27;35.97;101103.28;4735052;30;19922;-74
2022/04/27 09:24:13;;;;;;;;;;;;;;;23.86;34.97;101105.44;4735162;30;19923;-74
2022/04/27 09:27:12;;;;;;;;;;;;;;;23.08;35.00;101098.88;4747124;30;19923;-73
2022/04/27 09:29:58;;;;;;;;;;;;;;;24.73;32.97;101104.16;4722610;30;19927;-74
2022/04/27 09:32:52;;;;;;;;;;;;;;;25.58;31.76;101101.81;4717492;30;19926;-74
2022/04/27 09:35:37;;;;;;;;;;;;;;;26.20;30.05;101110.06;4717480;30;19922;-73
2022/04/27 09:38:22;;;;;;;;;;;;;;;27.60;27.66;101111.66;4722296;30;19922;-72
2022/04/27 09:41:06;;;;;;;;;;;;;;;27.15;28.11;101108.28;4717499;30;19923;-74
2022/04/27 09:43:51;;;;;;;;;;;;;;;24.86;31.82;101108.88;4717402;30;19922;-71
2022/04/27 09:46:40;;;;;;;;;;;;;;;23.81;34.24;101103.03;4719219;30;19923;-70
2022/04/27 09:49:25;;;;;;;;;;;;;;;26.03;30.58;101108.22;4717325;30;19923;-71
2022/04/27 09:52:12;;;;;;;;;;;;;;;28.17;27.26;101105.16;4721181;30;19922;-72
2022/04/27 09:54:58;;;;;;;;;;;;;;;28.39;26.35;101105.59;4734681;30;19922;-71
2022/04/27 09:57:45;;;;;;;;;;;;;;;34.74;19.15;101127.50;4732661;30;20141;-71
2022/04/27 10:00:30;;;;;;;;;;;;;;;36.24;17.33;101124.75;4734785;30;19926;-72
2022/04/27 10:03:16;;;;;;;;;;;;;;;35.68;18.28;101124.75;4734595;30;19923;-73
2022/04/27 10:06:00;;;;;;;;;;;;;;;32.11;20.78;101122.06;4734527;30;19922;-73
2022/04/27 10:08:48;;;;;;;;;;;;;;;35.97;17.59;101122.06;4734426;30;19923;-73
2022/04/27 10:11:33;;;;;;;;;;;;;;;35.26;17.34;101121.91;4733667;30;19926;-72
2022/04/27 10:14:18;;;;;;;;;;;;;;;36.89;17.34;101127.84;4734350;30;19926;-72
2022/04/27 10:17:04;;;;;;;;;;;;;;;30.64;22.82;101114.09;4734237;30;19927;-72
2022/04/27 10:19:50;;;;;;;;;;;;;;;27.75;27.73;101108.63;4731212;30;19923;-72
2022/04/27 10:22:35;;;;;;;;;;;;;;;32.48;21.63;101111.94;4738793;30;19922;-72
2022/04/27 10:25:19;;;;;;;;;;;;;;;36.39;17.80;101122.75;4734059;30;19922;-72
2022/04/27 10:28:15;;;;;;;;;;;;;;;35.90;17.98;101125.28;4727324;30;19927;-72
2022/04/27 10:31:03;;;;;;;;;;;;;;;36.71;16.96;101126.00;4737637;30;19922;-72
2022/04/27 10:33:48;;;;;;;;;;;;;;;35.00;18.98;101118.69;4739059;30;19926;-73
2022/04/27 10:36:32;;;;;;;;;;;;;;;36.22;17.92;101120.84;4734124;30;19922;-72
2022/04/27 10:39:19;;;;;;;;;;;;;;;34.72;18.72;101109.44;4716678;30;19923;-72
2022/04/27 10:42:04;;;;;;;;;;;;;;;37.70;16.91;101117.63;4719914;30;20387;-72
2022/04/27 10:44:50;;;;;;;;;;;;;;;39.94;14.64;101118.69;4733529;30;19930;-73
2022/04/27 10:47:35;;;;;;;;;;;;;;;37.80;16.56;101123.97;4733913;30;20391;-73
2022/04/27 10:50:25;;;;;;;;;;;;;;;41.49;12.74;101126.91;4741161;30;19923;-72
2022/04/27 10:53:15;;;;;;;;;;;;;;;40.97;13.48;101132.31;4727634;30;19926;-72
2022/04/27 10:56:00;;;;;;;;;;;;;;;38.82;15.35;101114.94;4733972;30;19922;-71
2022/04/27 10:58:45;;;;;;;;;;;;;;;41.05;13.69;101127.66;4732152;30;19927;-72
2022/04/27 11:01:32;;;;;;;;;;;;;;;37.88;15.39;101111.72;4732688;30;19926;-73
2022/04/27 11:04:16;;;;;;;;;;;;;;;41.69;13.01;101120.13;4728821;30;19930;-72
2022/04/27 11:07:10;;;;;;;;;;;;;;;38.80;15.51;101111.84;4747076;30;19922;-72
2022/04/27 11:09:58;;;;;;;;;;;;;;;36.86;17.48;101109.78;4733809;30;19931;-73
2022/04/27 11:12:44;;;;;;;;;;;;;;;39.19;14.46;101117.13;4731660;30;19926;-73
2022/04/27 11:15:29;;;;;;;;;;;;;;;35.15;17.61;101100.53;4733588;30;19923;-73
2022/04/27 11:18:16;;;;;;;;;;;;;;;38.56;14.36;101111.31;4738165;30;20387;-73
2022/04/27 11:21:02;;;;;;;;;;;;;;;40.07;14.06;101116.19;4741809;30;19922;-73
2022/04/27 11:23:47;;;;;;;;;;;;;;;39.23;14.67;101114.81;4736593;30;19922;-73
2022/04/27 11:26:39;;;;;;;;;;;;;;;39.10;14.75;101108.75;4733396;30;19923;-73
2022/04/27 11:29:25;;;;;;;;;;;;;;;39.15;13.84;101110.88;4734324;30;19926;-73
2022/04/27 11:32:09;;;;;;;;;;;;;;;33.98;18.90;101098.53;4736911;30;20303;-73
2022/04/27 11:34:54;;;;;;;;;;;;;;;37.72;15.98;101109.41;4736805;30;20379;-73
2022/04/27 11:37:38;;;;;;;;;;;;;;;39.66;13.51;101116.47;4736945;30;19923;-74
2022/04/27 11:40:27;;;;;;;;;;;;;;;38.24;15.29;101112.47;4735301;30;19922;-72
2022/04/27 11:43:13;;;;;;;;;;;;;;;37.91;14.86;101105.03;4736845;30;19923;-73
2022/04/27 11:45:58;;;;;;;;;;;;;;;34.22;19.63;101089.03;4736948;30;20316;-70
2022/04/27 11:48:46;;;;;;;;;;;;;;;30.35;24.68;101088.81;4736916;30;19922;-69
2022/04/27 11:51:35;;;;;;;;;;;;;;;28.85;26.73;101083.09;4732929;30;19923;-71
2022/04/27 11:54:23;;;;;;;;;;;;;;;28.26;27.71;101085.03;4731573;30;19926;-71
2022/04/27 11:57:12;;;;;;;;;;;;;;;27.58;29.17;101082.56;4729751;30;19923;-70
2022/04/27 11:59:58;;;;;;;;;;;;;;;27.14;29.53;101083.53;4740579;30;19923;-72
2022/04/27 12:02:43;;;;;;;;;;;;;;;26.97;30.11;101085.34;4736219;30;19930;-73
2022/04/27 12:05:28;;;;;;;;;;;;;;;26.91;30.29;101081.47;4735179;30;19923;-73
2022/04/27 12:08:17;;;;;;;;;;;;;;;26.67;30.07;101082.50;4734602;30;19923;-71
2022/04/27 12:11:02;;;;;;;;;;;;;;;26.73;30.38;101084.44;4731685;30;19923;-72
2022/04/27 12:13:47;;;;;;;;;;;;;;;26.59;31.06;101083.81;4730400;30;19926;-71
2022/04/27 12:16:31;;;;;;;;;;;;;;;26.37;32.36;101075.66;4733561;30;20288;-71
2022/04/27 12:19:26;;;;;;;;;;;;;;;26.14;32.41;101072.69;4730312;30;19923;-71
2022/04/27 12:22:14;;;;;;;;;;;;;;;25.87;33.33;101068.94;4735867;30;19923;-71
2022/04/27 12:25:07;;;;;;;;;;;;;;;25.68;34.06;101066.72;4732521;30;19926;-71
2022/04/27 12:27:52;;;;;;;;;;;;;;;25.57;33.90;101055.66;4722275;30;19927;-71
2022/04/27 12:30:47;;;;;;;;;;;;;;;25.48;33.69;101052.50;4731797;30;19922;-71
2022/04/27 12:33:37;;;;;;;;;;;;;;;25.26;33.89;101057.41;4735751;30;19926;-71
2022/04/27 12:39:39;;;;;;;;;;;;;;;25.21;33.92;101043.94;4731744;30;19923;-71
2022/04/27 12:42:24;;;;;;;;;;;;;;;25.15;32.47;101048.31;4726755;30;20291;-71
2022/04/27 12:45:08;;;;;;;;;;;;;;;25.13;32.43;101054.31;4737571;30;19922;-71
2022/04/27 12:47:54;;;;;;;;;;;;;;;25.05;33.35;101044.41;4726108;30;19923;-71
2022/04/27 12:50:49;;;;;;;;;;;;;;;24.98;33.68;101035.31;4728794;30;19923;-71
2022/04/27 12:53:35;;;;;;;;;;;;;;;24.83;34.50;101039.34;4732068;30;20396;-71
2022/04/27 12:56:22;;;;;;;;;;;;;;;24.90;34.16;101039.31;4737263;30;19923;-71
2022/04/27 12:59:08;;;;;;;;;;;;;;;24.71;34.86;101037.78;4730571;30;20384;-71
2022/04/27 13:02:00;;;;;;;;;;;;;;;24.65;34.69;101029.06;4729304;30;19922;-71
2022/04/27 13:04:47;;;;;;;;;;;;;;;24.56;35.04;101025.13;4733393;30;19922;-71
2022/04/27 13:07:31;;;;;;;;;;;;;;;24.56;34.75;101025.13;4735197;30;19923;-71
2022/04/27 13:13:22;;;;;;;;;;;;;;;24.58;32.92;101026.31;4736839;30;19926;-71
2022/04/27 13:16:06;;;;;;;;;;;;;;;24.54;32.16;101021.94;4728440;30;19923;-71
2022/04/27 13:18:51;;;;;;;;;;;;;;;24.52;33.48;101024.34;4733848;30;19922;-71
2022/04/27 13:21:35;;;;;;;;;;;;;;;24.55;33.12;101024.34;4737817;30;19922;-70
2022/04/27 13:24:20;;;;;;;;;;;;;;;24.51;33.16;101018.00;4735246;30;19922;-70
2022/04/27 13:27:04;;;;;;;;;;;;;;;24.45;33.21;101010.47;4734949;30;19934;-70
2022/04/27 13:29:49;;;;;;;;;;;;;;;24.40;33.85;101014.47;4730761;30;19923;-70
2022/04/27 13:32:33;;;;;;;;;;;;;;;24.32;34.58;101015.69;4729558;30;20384;-70
2022/04/27 13:35:19;;;;;;;;;;;;;;;24.34;34.02;101016.06;4725614;30;19927;-70
2022/04/27 13:38:05;;;;;;;;;;;;;;;24.30;34.22;101012.50;4725492;30;19922;-70
2022/04/27 13:40:51;;;;;;;;;;;;;;;24.36;34.10;101007.34;4726940;30;19923;-70
2022/04/27 13:43:37;;;;;;;;;;;;;;;24.34;32.86;101002.16;4732318;30;20291;-70
2022/04/27 13:46:23;;;;;;;;;;;;;;;24.32;33.34;101001.78;4728170;30;20304;-70
2022/04/27 13:49:07;;;;;;;;;;;;;;;24.28;32.53;100999.00;4734680;30;19922;-70
2022/04/27 13:51:52;;;;;;;;;;;;;;;24.26;33.68;100989.50;4734630;30;19931;-70
2022/04/27 13:54:37;;;;;;;;;;;;;;;24.16;33.83;100993.84;4725822;30;19927;-70
2022/04/27 13:57:22;;;;;;;;;;;;;;;24.11;34.17;100991.50;4721117;30;20410;-70
2022/04/27 14:00:07;;;;;;;;;;;;;;;24.09;32.47;101001.41;4742639;30;19930;-70
2022/04/27 14:02:56;;;;;;;;;;;;;;;24.08;32.96;100988.69;4733599;30;20384;-70
2022/04/27 14:05:41;;;;;;;;;;;;;;;24.06;33.46;100988.31;4734333;30;19922;-69
2022/04/27 14:08:26;;;;;;;;;;;;;;;23.98;33.26;100989.50;4739829;30;20127;-71
2022/04/27 14:13:11;;;;;;;;;;;;;;;23.89;34.54;100995.50;4728135;30;19927;-71
2022/04/27 14:14:16;;;;;;;;;;;;;;;23.83;33.09;100992.31;4733799;30;19926;-71
2022/04/27 14:20:04;;;;;;;;;;;;;;;23.86;33.49;100993.53;4740039;30;19926;-69
2022/04/27 14:22:49;;;;;;;;;;;;;;;23.79;33.81;100993.50;4732581;30;19922;-71
2022/04/27 14:25:36;;;;;;;;;;;;;;;23.77;34.00;100987.59;4731466;30;20598;-69
2022/04/27 14:28:22;;;;;;;;;;;;;;;23.77;31.65;100984.81;4734186;30;20303;-69
2022/04/27 14:31:07;;;;;;;;;;;;;;;23.70;34.07;100979.25;4734740;30;19922;-71
2022/04/27 14:33:51;;;;;;;;;;;;;;;23.66;35.00;100984.00;4735648;30;19931;-70
2022/04/27 14:36:35;;;;;;;;;;;;;;;23.60;35.39;100985.59;4730921;30;20376;-70
2022/04/27 14:39:20;;;;;;;;;;;;;;;23.53;35.29;100986.38;4723574;30;19922;-70
2022/04/27 14:42:05;;;;;;;;;;;;;;;23.48;34.73;100984.00;4722500;30;19926;-70
2022/04/27 14:44:50;;;;;;;;;;;;;;;23.46;35.10;100982.81;4761851;24;19933;-71
2022/04/27 14:47:34;;;;;;;;;;;;;;;23.44;35.12;100985.97;4725807;30;19930;-72
2022/04/27 14:50:19;;;;;;;;;;;;;;;23.41;35.75;100986.75;4733835;30;19923;-72
2022/04/27 14:53:04;;;;;;;;;;;;;;;23.34;35.66;100978.41;4741326;30;19922;-71